Time;durP1;ratioP1;P1;durP2;ratioP2;P2;SDS_P1;SDS_P2;PMS_P1;PMS_P2;Temp;Humidity;BMP_temperature;BMP_pressure;BME280_temperature;BME280_humidity;BME280_pressure;Samples;Min_cycle;Max_cycle;Signal;HPM_P1;HPM_P2
2023/06/29 00:00:57;;;;;;;;;;;17.00;69.40;;;;;;5088706;28;19912;-72
2023/06/29 00:03:22;;;;;;;;;;;17.00;69.40;;;;;;5087344;28;19928;-72
2023/06/29 00:05:48;;;;;;;;;;;16.90;69.30;;;;;;5088717;28;19916;-72
2023/06/29 00:08:14;;;;;;;;;;;16.90;69.30;;;;;;5088736;28;19920;-72
2023/06/29 00:10:40;;;;;;;;;;;16.90;69.30;;;;;;5087272;28;19913;-72
2023/06/29 00:13:05;;;;;;;;;;;16.90;69.40;;;;;;5088462;28;19916;-72
2023/06/29 00:15:31;;;;;;;;;;;16.90;69.30;;;;;;5087169;28;19994;-72
2023/06/29 00:17:57;;;;;;;;;;;16.90;69.30;;;;;;5089003;28;19923;-72
2023/06/29 00:20:24;;;;;;;;;;;16.80;69.40;;;;;;5088694;28;19912;-72
2023/06/29 00:22:49;;;;;;;;;;;16.90;69.50;;;;;;5088674;28;19924;-72
2023/06/29 00:25:16;;;;;;;;;;;16.80;69.30;;;;;;5088280;28;20327;-72
2023/06/29 00:27:42;;;;;;;;;;;16.80;69.30;;;;;;5088353;28;19919;-71
2023/06/29 00:30:08;;;;;;;;;;;16.70;69.20;;;;;;5087148;28;19912;-72
2023/06/29 00:32:33;;;;;;;;;;;16.60;69.20;;;;;;5088376;28;19923;-72
2023/06/29 00:34:59;;;;;;;;;;;16.50;69.20;;;;;;5088282;28;19930;-72
2023/06/29 00:37:24;;;;;;;;;;;16.50;69.20;;;;;;5088382;28;20280;-72
2023/06/29 00:39:50;;;;;;;;;;;16.40;69.30;;;;;;5088295;28;19912;-72
2023/06/29 00:42:16;;;;;;;;;;;16.40;69.30;;;;;;5088111;28;19912;-72
2023/06/29 00:44:41;;;;;;;;;;;16.30;69.30;;;;;;5088210;28;20016;-73
2023/06/29 00:47:07;;;;;;;;;;;16.30;69.30;;;;;;5088164;28;20312;-73
2023/06/29 00:49:33;;;;;;;;;;;16.30;69.30;;;;;;5088089;28;19935;-73
2023/06/29 00:51:59;;;;;;;;;;;16.20;69.30;;;;;;5088198;28;19908;-73
2023/06/29 00:54:24;;;;;;;;;;;16.20;69.30;;;;;;5088258;28;19908;-73
2023/06/29 00:56:50;;;;;;;;;;;16.20;69.40;;;;;;5088198;28;19916;-73
2023/06/29 00:59:16;;;;;;;;;;;16.20;69.40;;;;;;5088117;28;20285;-73
2023/06/29 01:01:41;;;;;;;;;;;16.30;69.40;;;;;;5086649;28;19912;-73
2023/06/29 01:04:08;;;;;;;;;;;16.40;69.40;;;;;;5069699;28;19935;-73
2023/06/29 01:06:37;;;;;;;;;;;16.40;69.40;;;;;;5087775;28;19957;-73
2023/06/29 01:09:04;;;;;;;;;;;16.40;69.30;;;;;;5088348;28;19962;-73
2023/06/29 01:11:33;;;;;;;;;;;16.40;69.30;;;;;;5087807;28;19920;-73
2023/06/29 01:13:59;;;;;;;;;;;16.40;69.30;;;;;;5088090;28;19908;-73
2023/06/29 01:16:25;;;;;;;;;;;16.30;69.20;;;;;;5086737;28;19946;-73
2023/06/29 01:18:51;;;;;;;;;;;16.30;69.10;;;;;;5087939;28;19997;-73
2023/06/29 01:21:18;;;;;;;;;;;16.20;69.10;;;;;;5087843;28;19913;-73
2023/06/29 01:23:45;;;;;;;;;;;16.20;69.10;;;;;;5087953;28;19936;-73
2023/06/29 01:26:11;;;;;;;;;;;16.20;69.10;;;;;;5088319;28;20001;-73
2023/06/29 01:28:38;;;;;;;;;;;16.10;69.10;;;;;;5091857;28;19915;-73
2023/06/29 01:31:06;;;;;;;;;;;16.00;69.10;;;;;;5092020;28;19948;-73
2023/06/29 01:33:32;;;;;;;;;;;15.90;69.10;;;;;;5091679;28;19912;-73
2023/06/29 01:36:11;;;;;;;;;;;15.80;69.10;;;;;;5091656;28;20394;-73
2023/06/29 01:38:39;;;;;;;;;;;15.70;69.20;;;;;;5091605;28;19912;-73
2023/06/29 01:41:06;;;;;;;;;;;15.60;69.20;;;;;;5091664;28;20133;-73
2023/06/29 01:43:32;;;;;;;;;;;15.60;69.30;;;;;;5091693;28;19930;-73
2023/06/29 01:45:58;;;;;;;;;;;15.50;69.20;;;;;;5091388;28;19920;-73
2023/06/29 01:48:25;;;;;;;;;;;15.40;69.10;;;;;;5091392;28;19909;-73
2023/06/29 01:50:50;;;;;;;;;;;15.30;69.10;;;;;;5091405;28;19916;-73
2023/06/29 01:53:16;;;;;;;;;;;15.30;69.20;;;;;;5091196;28;19916;-73
2023/06/29 01:55:41;;;;;;;;;;;15.20;69.20;;;;;;5089980;28;19928;-73
2023/06/29 01:58:07;;;;;;;;;;;15.10;69.20;;;;;;5091146;28;20414;-73
2023/06/29 02:00:32;;;;;;;;;;;15.00;69.10;;;;;;5091088;28;19958;-73
2023/06/29 02:02:58;;;;;;;;;;;15.00;69.20;;;;;;5091287;28;19966;-73
2023/06/29 02:05:24;;;;;;;;;;;14.80;69.10;;;;;;5091163;28;20413;-73
2023/06/29 02:07:49;;;;;;;;;;;14.70;69.00;;;;;;5091178;28;19923;-73
2023/06/29 02:10:15;;;;;;;;;;;14.70;69.10;;;;;;5089768;28;20375;-73
2023/06/29 02:12:41;;;;;;;;;;;14.60;69.10;;;;;;5090967;28;19920;-73
2023/06/29 02:15:07;;;;;;;;;;;14.50;69.10;;;;;;5091024;28;19924;-73
2023/06/29 02:17:32;;;;;;;;;;;14.50;69.20;;;;;;5091082;28;19912;-73
2023/06/29 02:19:58;;;;;;;;;;;14.40;69.20;;;;;;5090752;28;19923;-72
2023/06/29 02:22:23;;;;;;;;;;;14.40;69.20;;;;;;5089411;28;19912;-72
2023/06/29 02:24:49;;;;;;;;;;;14.40;69.20;;;;;;5090670;28;19912;-72
2023/06/29 02:27:14;;;;;;;;;;;14.30;69.20;;;;;;5090769;28;20427;-72
2023/06/29 02:29:40;;;;;;;;;;;14.30;69.30;;;;;;5090711;28;19920;-73
2023/06/29 02:32:06;;;;;;;;;;;14.30;69.30;;;;;;5089451;28;19916;-73
2023/06/29 02:34:31;;;;;;;;;;;14.30;69.20;;;;;;5089401;28;19951;-73
2023/06/29 02:36:57;;;;;;;;;;;14.30;69.20;;;;;;5090461;28;20265;-73
2023/06/29 02:39:22;;;;;;;;;;;14.30;69.20;;;;;;5090341;28;19935;-73
2023/06/29 02:41:48;;;;;;;;;;;14.30;69.20;;;;;;5089075;28;20268;-73
2023/06/29 02:44:13;;;;;;;;;;;14.30;69.10;;;;;;5089029;28;19908;-73
2023/06/29 02:46:40;;;;;;;;;;;14.20;69.00;;;;;;5090295;28;19912;-73
2023/06/29 02:49:06;;;;;;;;;;;14.20;69.00;;;;;;5090714;28;19918;-74
2023/06/29 02:51:31;;;;;;;;;;;14.10;69.00;;;;;;5090086;28;20010;-73
2023/06/29 02:53:57;;;;;;;;;;;14.10;69.00;;;;;;5088950;28;19963;-73
2023/06/29 02:56:22;;;;;;;;;;;14.00;68.90;;;;;;5090176;28;19912;-73
2023/06/29 02:58:48;;;;;;;;;;;14.00;69.00;;;;;;5090129;28;20023;-73
2023/06/29 03:01:13;;;;;;;;;;;13.90;69.00;;;;;;5090095;28;19939;-74
2023/06/29 03:03:39;;;;;;;;;;;13.90;69.00;;;;;;5088618;28;19969;-73
2023/06/29 03:06:04;;;;;;;;;;;13.80;69.00;;;;;;5089971;28;20217;-73
2023/06/29 03:08:30;;;;;;;;;;;13.80;69.00;;;;;;5089998;28;19919;-73
2023/06/29 03:10:56;;;;;;;;;;;13.70;69.00;;;;;;5089836;28;19919;-73
2023/06/29 03:13:21;;;;;;;;;;;13.70;69.00;;;;;;5089859;28;19912;-73
2023/06/29 03:15:47;;;;;;;;;;;13.60;69.00;;;;;;5089787;28;19923;-73
2023/06/29 03:18:13;;;;;;;;;;;13.60;69.10;;;;;;5089764;28;19998;-73
2023/06/29 03:20:38;;;;;;;;;;;13.50;69.00;;;;;;5089483;28;19916;-73
2023/06/29 03:23:04;;;;;;;;;;;13.60;69.10;;;;;;5088640;28;19919;-73
2023/06/29 03:25:29;;;;;;;;;;;13.50;69.10;;;;;;5089572;28;19924;-73
2023/06/29 03:27:55;;;;;;;;;;;13.50;69.10;;;;;;5089608;28;19912;-73
2023/06/29 03:30:21;;;;;;;;;;;13.50;69.10;;;;;;5089456;28;19912;-73
2023/06/29 03:32:47;;;;;;;;;;;13.40;69.00;;;;;;5089512;28;19919;-73
2023/06/29 03:35:12;;;;;;;;;;;13.40;69.10;;;;;;5089350;28;20006;-73
2023/06/29 03:37:38;;;;;;;;;;;13.40;69.10;;;;;;5089373;28;19916;-73
2023/06/29 03:40:04;;;;;;;;;;;13.40;69.10;;;;;;5089453;28;20400;-74
2023/06/29 03:42:29;;;;;;;;;;;13.30;69.10;;;;;;5089240;28;20268;-73
2023/06/29 03:44:55;;;;;;;;;;;13.30;69.00;;;;;;5087889;28;19923;-73
2023/06/29 03:47:20;;;;;;;;;;;13.30;69.10;;;;;;5089097;28;19919;-73
2023/06/29 03:49:47;;;;;;;;;;;13.20;69.00;;;;;;5088506;28;19916;-73
2023/06/29 03:52:12;;;;;;;;;;;13.20;69.00;;;;;;5087787;28;19912;-73
2023/06/29 03:54:38;;;;;;;;;;;13.20;69.10;;;;;;5089073;28;20378;-73
2023/06/29 03:57:04;;;;;;;;;;;13.20;69.10;;;;;;5089117;28;19990;-73
2023/06/29 03:59:29;;;;;;;;;;;13.10;69.00;;;;;;5087683;28;19916;-73
2023/06/29 04:01:55;;;;;;;;;;;13.10;69.00;;;;;;5088948;28;19977;-73
2023/06/29 04:04:20;;;;;;;;;;;13.10;69.00;;;;;;5088584;28;19920;-73
2023/06/29 04:06:46;;;;;;;;;;;13.10;69.10;;;;;;5088674;28;19998;-73
2023/06/29 04:09:12;;;;;;;;;;;13.00;69.00;;;;;;5088412;28;19912;-73
2023/06/29 04:11:37;;;;;;;;;;;13.00;69.00;;;;;;5088466;28;19920;-73
2023/06/29 04:14:03;;;;;;;;;;;13.00;69.10;;;;;;5088305;28;19973;-73
2023/06/29 04:16:29;;;;;;;;;;;13.00;69.10;;;;;;5088346;28;20322;-73
2023/06/29 04:18:54;;;;;;;;;;;12.90;69.00;;;;;;5088132;28;19920;-73
2023/06/29 04:21:20;;;;;;;;;;;12.90;69.10;;;;;;5088198;28;19919;-73
2023/06/29 04:23:45;;;;;;;;;;;12.90;69.10;;;;;;5088285;28;20476;-73
2023/06/29 04:26:13;;;;;;;;;;;12.90;69.00;;;;;;5088182;28;19916;-73
2023/06/29 04:28:38;;;;;;;;;;;12.90;69.10;;;;;;5087535;28;19923;-73
2023/06/29 04:31:04;;;;;;;;;;;12.90;69.00;;;;;;5087666;28;19912;-73
2023/06/29 04:33:29;;;;;;;;;;;12.90;69.10;;;;;;5088240;28;19916;-73
2023/06/29 04:35:55;;;;;;;;;;;12.90;69.00;;;;;;5087973;28;20365;-73
2023/06/29 04:38:25;;;;;;;;;;;12.90;69.00;;;;;;5088161;28;19915;-73
2023/06/29 04:40:53;;;;;;;;;;;12.90;69.00;;;;;;5086857;28;19912;-73
2023/06/29 04:43:18;;;;;;;;;;;12.90;69.00;;;;;;5088195;28;19916;-73
2023/06/29 04:45:44;;;;;;;;;;;12.90;69.00;;;;;;5088231;28;19917;-73
2023/06/29 04:48:10;;;;;;;;;;;12.90;68.90;;;;;;5088257;28;19924;-73
2023/06/29 04:50:36;;;;;;;;;;;12.90;69.00;;;;;;5087997;28;19908;-72
2023/06/29 04:53:09;;;;;;;;;;;12.90;69.00;;;;;;5088005;28;19915;-72
2023/06/29 04:55:36;;;;;;;;;;;13.00;69.10;;;;;;5088162;28;20361;-73
2023/06/29 04:58:03;;;;;;;;;;;13.30;68.90;;;;;;5086510;28;19916;-73
2023/06/29 05:00:29;;;;;;;;;;;13.50;68.60;;;;;;5088065;28;20375;-73
2023/06/29 05:02:54;;;;;;;;;;;13.50;68.30;;;;;;5089795;28;19920;-73
2023/06/29 05:05:20;;;;;;;;;;;13.40;68.30;;;;;;5092281;28;19916;-73
2023/06/29 05:07:45;;;;;;;;;;;13.40;68.50;;;;;;5092142;28;20006;-73
2023/06/29 05:10:11;;;;;;;;;;;13.40;68.60;;;;;;5090807;28;19912;-73
2023/06/29 05:12:37;;;;;;;;;;;13.40;68.70;;;;;;5092177;28;19916;-73
2023/06/29 05:15:02;;;;;;;;;;;13.40;68.80;;;;;;5091792;28;19919;-73
2023/06/29 05:17:28;;;;;;;;;;;13.40;68.80;;;;;;5091865;28;19999;-72
2023/06/29 05:19:53;;;;;;;;;;;13.60;68.90;;;;;;5091939;28;19977;-73
2023/06/29 05:22:19;;;;;;;;;;;13.70;69.00;;;;;;5091897;28;19912;-73
2023/06/29 05:24:44;;;;;;;;;;;13.90;68.90;;;;;;5091949;28;19913;-73
2023/06/29 05:27:10;;;;;;;;;;;14.00;68.90;;;;;;5090486;28;19924;-73
2023/06/29 05:29:37;;;;;;;;;;;14.10;68.90;;;;;;5091822;28;19948;-73
2023/06/29 05:32:02;;;;;;;;;;;14.10;68.90;;;;;;5091667;28;19998;-73
2023/06/29 05:34:28;;;;;;;;;;;14.20;69.00;;;;;;5091578;28;20026;-73
2023/06/29 05:36:54;;;;;;;;;;;14.30;69.00;;;;;;5073273;28;19916;-73
2023/06/29 05:39:19;;;;;;;;;;;14.30;69.00;;;;;;5091442;28;19912;-72
2023/06/29 05:41:45;;;;;;;;;;;14.40;69.00;;;;;;5091270;28;19908;-72
2023/06/29 05:44:10;;;;;;;;;;;14.50;69.10;;;;;;5091262;28;19915;-73
2023/06/29 05:46:36;;;;;;;;;;;14.60;69.00;;;;;;5091162;28;20368;-72
2023/06/29 05:49:02;;;;;;;;;;;14.70;69.40;;;;;;5091219;28;19991;-73
2023/06/29 05:51:28;;;;;;;;;;;14.90;69.00;;;;;;5091205;28;20288;-72
2023/06/29 05:53:53;;;;;;;;;;;15.00;69.00;;;;;;5091423;28;19908;-72
2023/06/29 05:56:19;;;;;;;;;;;15.00;68.90;;;;;;5091097;28;19926;-72
2023/06/29 05:58:46;;;;;;;;;;;15.10;68.90;;;;;;5091135;28;20285;-73
2023/06/29 06:01:12;;;;;;;;;;;15.20;68.90;;;;;;5091020;28;20344;-73
2023/06/29 06:03:38;;;;;;;;;;;15.30;68.80;;;;;;5091752;28;19931;-73
2023/06/29 06:06:04;;;;;;;;;;;15.30;68.80;;;;;;5091953;28;19916;-73
2023/06/29 06:08:29;;;;;;;;;;;15.40;68.80;;;;;;5091701;28;19969;-73
2023/06/29 06:10:55;;;;;;;;;;;15.40;68.80;;;;;;5091857;28;19952;-73
2023/06/29 06:13:21;;;;;;;;;;;15.50;68.90;;;;;;5088993;28;19908;-73
2023/06/29 06:15:46;;;;;;;;;;;15.60;68.90;;;;;;5089531;28;19918;-73
2023/06/29 06:18:12;;;;;;;;;;;15.80;68.90;;;;;;5090851;28;20392;-73
2023/06/29 06:20:37;;;;;;;;;;;15.90;68.80;;;;;;5090692;28;19916;-74
2023/06/29 06:23:03;;;;;;;;;;;16.00;68.70;;;;;;5089659;28;19912;-73
2023/06/29 06:25:28;;;;;;;;;;;16.10;68.70;;;;;;5090653;28;19920;-73
2023/06/29 06:27:54;;;;;;;;;;;16.30;68.70;;;;;;5090459;28;19924;-73
2023/06/29 06:30:21;;;;;;;;;;;16.40;68.80;;;;;;5088974;28;19912;-73
2023/06/29 06:32:46;;;;;;;;;;;16.70;68.70;;;;;;5090091;28;20441;-73
2023/06/29 06:35:12;;;;;;;;;;;16.90;68.50;;;;;;5090171;28;19912;-73
2023/06/29 06:37:38;;;;;;;;;;;17.10;68.40;;;;;;5090162;28;20276;-73
2023/06/29 06:40:07;;;;;;;;;;;17.80;68.80;;;;;;5089902;28;19908;-73
2023/06/29 06:42:36;;;;;;;;;;;19.20;68.00;;;;;;5089757;28;20276;-73
2023/06/29 06:45:05;;;;;;;;;;;20.60;66.70;;;;;;5089508;28;20021;-73
2023/06/29 06:47:32;;;;;;;;;;;21.70;65.70;;;;;;5089973;28;20356;-73
2023/06/29 06:49:57;;;;;;;;;;;22.60;65.10;;;;;;5089986;28;20389;-72
2023/06/29 06:52:23;;;;;;;;;;;22.90;64.10;;;;;;5089528;28;20044;-73
2023/06/29 06:54:49;;;;;;;;;;;22.40;63.90;;;;;;5089566;28;19908;-73
2023/06/29 06:57:14;;;;;;;;;;;21.60;64.60;;;;;;5089641;28;19984;-72
2023/06/29 06:59:40;;;;;;;;;;;21.00;65.60;;;;;;5089187;28;19908;-73
2023/06/29 07:02:06;;;;;;;;;;;20.70;66.20;;;;;;5089579;28;19920;-73
2023/06/29 07:04:31;;;;;;;;;;;20.40;66.60;;;;;;5089106;28;19926;-73
2023/06/29 07:06:57;;;;;;;;;;;20.00;67.00;;;;;;5089574;28;19917;-73
2023/06/29 07:09:23;;;;;;;;;;;20.30;68.10;;;;;;5089235;28;19912;-73
2023/06/29 07:11:48;;;;;;;;;;;21.50;67.80;;;;;;5087872;28;20003;-73
2023/06/29 07:14:15;;;;;;;;;;;22.70;67.10;;;;;;5089302;28;20334;-73
2023/06/29 07:16:41;;;;;;;;;;;23.80;66.10;;;;;;5088993;28;20425;-73
2023/06/29 07:19:07;;;;;;;;;;;24.70;65.50;;;;;;5089214;28;19931;-70
2023/06/29 07:21:32;;;;;;;;;;;25.40;65.30;;;;;;5088760;28;19908;-73
2023/06/29 07:23:58;;;;;;;;;;;25.90;64.90;;;;;;5088601;28;19962;-73
2023/06/29 07:26:24;;;;;;;;;;;26.30;64.80;;;;;;5088548;28;20429;-73
2023/06/29 07:28:50;;;;;;;;;;;26.70;64.60;;;;;;5088892;28;19912;-73
2023/06/29 07:31:15;;;;;;;;;;;27.00;64.80;;;;;;5088809;28;19908;-73
2023/06/29 07:33:41;;;;;;;;;;;27.40;64.80;;;;;;5088874;28;19912;-73
2023/06/29 07:36:07;;;;;;;;;;;27.80;65.10;;;;;;5089086;28;20337;-73
2023/06/29 07:38:33;;;;;;;;;;;28.10;65.10;;;;;;5088189;28;19908;-73
2023/06/29 07:40:58;;;;;;;;;;;28.40;64.90;;;;;;5088705;28;19913;-73
2023/06/29 07:43:24;;;;;;;;;;;28.00;64.80;;;;;;5088569;28;19908;-73
2023/06/29 07:45:49;;;;;;;;;;;27.30;65.20;;;;;;5088380;28;19926;-73
2023/06/29 07:48:16;;;;;;;;;;;27.70;66.60;;;;;;5087316;28;19913;-73
2023/06/29 07:50:42;;;;;;;;;;;27.80;66.40;;;;;;5088277;28;19994;-73
2023/06/29 07:53:08;;;;;;;;;;;27.50;66.70;;;;;;5088283;28;20002;-73
2023/06/29 07:55:34;;;;;;;;;;;27.00;66.50;;;;;;5088473;28;19934;-73
2023/06/29 07:58:00;;;;;;;;;;;26.40;66.80;;;;;;5088299;28;19908;-73
2023/06/29 08:00:25;;;;;;;;;;;26.30;68.00;;;;;;5086845;28;19928;-73
2023/06/29 08:02:51;;;;;;;;;;;27.00;68.40;;;;;;5087512;28;19908;-73
2023/06/29 08:05:17;;;;;;;;;;;27.80;68.30;;;;;;5090515;28;19916;-74
2023/06/29 08:07:43;;;;;;;;;;;28.40;67.90;;;;;;5109214;28;19961;-73
2023/06/29 08:10:09;;;;;;;;;;;28.30;67.00;;;;;;5106481;28;19912;-72
2023/06/29 08:12:34;;;;;;;;;;;28.70;67.50;;;;;;5098231;28;19912;-73
2023/06/29 08:15:00;;;;;;;;;;;29.30;67.50;;;;;;5093993;28;19996;-72
2023/06/29 08:17:25;;;;;;;;;;;29.50;67.00;;;;;;5102417;28;19941;-73
2023/06/29 08:19:51;;;;;;;;;;;29.60;66.80;;;;;;5098431;28;19947;-71
2023/06/29 08:22:16;;;;;;;;;;;29.80;67.20;;;;;;5088490;28;20477;-71
2023/06/29 08:24:42;;;;;;;;;;;30.20;67.40;;;;;;5094327;28;19919;-71
2023/06/29 08:27:08;;;;;;;;;;;30.50;67.20;;;;;;5096364;28;20344;-71
2023/06/29 08:29:33;;;;;;;;;;;30.70;66.90;;;;;;5099938;28;19915;-72
2023/06/29 08:31:59;;;;;;;;;;;30.90;67.20;;;;;;5097542;28;19912;-71
2023/06/29 08:34:25;;;;;;;;;;;31.20;67.60;;;;;;5081087;28;19912;-72
2023/06/29 08:36:50;;;;;;;;;;;30.60;66.70;;;;;;5099207;28;19922;-72
2023/06/29 08:39:16;;;;;;;;;;;30.10;67.80;;;;;;5089548;28;19912;-72
2023/06/29 08:41:41;;;;;;;;;;;29.50;67.70;;;;;;5106640;28;20360;-72
2023/06/29 08:44:07;;;;;;;;;;;28.70;67.60;;;;;;5108599;28;19922;-72
2023/06/29 08:46:34;;;;;;;;;;;28.00;68.50;;;;;;5108341;28;19912;-72
2023/06/29 08:49:00;;;;;;;;;;;28.20;69.30;;;;;;5101263;28;19938;-72
2023/06/29 08:51:27;;;;;;;;;;;27.80;69.00;;;;;;5099549;28;19920;-71
2023/06/29 08:53:53;;;;;;;;;;;27.40;69.50;;;;;;5099228;28;19999;-71
2023/06/29 08:56:19;;;;;;;;;;;27.90;70.60;;;;;;5098245;28;20325;-71
2023/06/29 08:58:44;;;;;;;;;;;28.00;69.60;;;;;;5098763;28;20174;-72
2023/06/29 09:01:11;;;;;;;;;;;27.60;69.10;;;;;;5097274;28;20041;-71
2023/06/29 09:03:38;;;;;;;;;;;26.90;68.90;;;;;;5095983;28;20014;-71
2023/06/29 09:06:03;;;;;;;;;;;26.10;68.90;;;;;;5097123;28;19944;-71
2023/06/29 09:08:29;;;;;;;;;;;25.40;69.10;;;;;;5102679;28;19954;-71
2023/06/29 09:10:55;;;;;;;;;;;25.40;71.20;;;;;;5108264;28;19908;-71
2023/06/29 09:13:26;;;;;;;;;;;26.60;72.10;;;;;;5108703;28;19912;-71
2023/06/29 09:15:55;;;;;;;;;;;28.10;72.10;;;;;;5109619;28;19912;-71
2023/06/29 09:18:23;;;;;;;;;;;29.40;71.20;;;;;;5108611;28;19923;-71
2023/06/29 09:20:55;;;;;;;;;;;29.40;69.70;;;;;;5108445;28;19913;-71
2023/06/29 09:23:21;;;;;;;;;;;28.80;69.20;;;;;;5108466;28;20004;-71
2023/06/29 09:25:48;;;;;;;;;;;28.50;69.70;;;;;;5106643;28;20010;-71
2023/06/29 09:28:13;;;;;;;;;;;28.80;70.80;;;;;;5107621;28;19915;-71
2023/06/29 09:30:40;;;;;;;;;;;29.80;71.30;;;;;;5107609;28;19908;-72
2023/06/29 09:33:12;;;;;;;;;;;30.80;71.30;;;;;;5108411;28;19926;-71
2023/06/29 09:35:43;;;;;;;;;;;31.70;71.00;;;;;;5108311;28;19915;-71
2023/06/29 09:38:09;;;;;;;;;;;32.10;70.00;;;;;;5106722;28;20233;-71
2023/06/29 09:40:45;;;;;;;;;;;31.20;68.80;;;;;;5108213;28;19923;-72
2023/06/29 09:43:14;;;;;;;;;;;30.00;68.60;;;;;;5108229;28;19912;-72
2023/06/29 09:45:40;;;;;;;;;;;29.10;69.80;;;;;;5107920;28;19911;-72
2023/06/29 09:48:10;;;;;;;;;;;28.80;70.10;;;;;;5109642;28;19912;-72
2023/06/29 09:50:36;;;;;;;;;;;28.40;69.90;;;;;;5111988;28;19919;-72
2023/06/29 09:53:06;;;;;;;;;;;28.20;70.10;;;;;;5110493;28;19912;-72
2023/06/29 09:55:32;;;;;;;;;;;28.00;70.00;;;;;;5111401;28;19917;-72
2023/06/29 09:57:58;;;;;;;;;;;27.60;69.60;;;;;;5111685;28;19912;-73
2023/06/29 10:00:24;;;;;;;;;;;27.20;69.60;;;;;;5110580;28;20310;-73
2023/06/29 10:02:49;;;;;;;;;;;26.80;69.20;;;;;;5110210;28;19918;-75
2023/06/29 10:05:15;;;;;;;;;;;26.40;69.40;;;;;;5111648;28;20340;-72
2023/06/29 10:07:41;;;;;;;;;;;26.20;69.80;;;;;;5110438;28;19949;-72
2023/06/29 10:10:10;;;;;;;;;;;26.30;70.10;;;;;;5110150;28;20367;-72
2023/06/29 10:12:35;;;;;;;;;;;26.10;69.70;;;;;;5111380;28;19964;-72
2023/06/29 10:15:08;;;;;;;;;;;25.70;70.00;;;;;;5111395;28;19916;-72
2023/06/29 10:17:37;;;;;;;;;;;25.40;69.70;;;;;;5110305;28;19915;-72
2023/06/29 10:20:04;;;;;;;;;;;24.90;69.30;;;;;;5110907;28;19955;-72
2023/06/29 10:22:31;;;;;;;;;;;24.50;69.40;;;;;;5111535;28;20248;-72
2023/06/29 10:24:58;;;;;;;;;;;24.10;69.40;;;;;;5111270;28;19943;-72
2023/06/29 10:27:26;;;;;;;;;;;23.70;69.50;;;;;;5111060;28;20276;-72
2023/06/29 10:29:52;;;;;;;;;;;23.40;69.60;;;;;;5111393;28;19907;-73
2023/06/29 10:32:33;;;;;;;;;;;23.10;69.60;;;;;;5111328;28;19967;-73
2023/06/29 10:34:59;;;;;;;;;;;22.90;69.80;;;;;;5111125;28;20587;-72
2023/06/29 10:37:35;;;;;;;;;;;22.80;69.90;;;;;;5111142;28;20379;-73
2023/06/29 10:40:01;;;;;;;;;;;22.80;70.10;;;;;;5111095;28;19919;-73
2023/06/29 10:42:28;;;;;;;;;;;23.10;70.20;;;;;;5109791;28;19912;-74
2023/06/29 10:44:53;;;;;;;;;;;23.40;70.00;;;;;;5111757;28;19915;-73
2023/06/29 10:47:27;;;;;;;;;;;23.80;69.90;;;;;;5110059;28;19936;-72
2023/06/29 10:50:10;;;;;;;;;;;24.20;69.80;;;;;;5111153;28;19919;-72
2023/06/29 10:52:39;;;;;;;;;;;24.90;70.10;;;;;;5111116;28;19908;-73
2023/06/29 10:55:18;;;;;;;;;;;25.80;70.20;;;;;;5109498;28;19908;-73
2023/06/29 10:57:54;;;;;;;;;;;26.60;70.10;;;;;;5111110;28;20354;-74
2023/06/29 11:00:21;;;;;;;;;;;27.10;69.60;;;;;;5110566;28;19966;-72
2023/06/29 11:02:53;;;;;;;;;;;27.40;69.40;;;;;;5110356;28;19961;-73
2023/06/29 11:05:20;;;;;;;;;;;28.20;70.10;;;;;;5108876;28;19920;-72
2023/06/29 11:07:51;;;;;;;;;;;29.20;70.10;;;;;;5110666;28;19957;-73
2023/06/29 11:10:18;;;;;;;;;;;29.80;70.10;;;;;;5110684;28;20183;-73
2023/06/29 11:12:43;;;;;;;;;;;30.70;70.70;;;;;;5110720;28;19908;-73
2023/06/29 11:15:15;;;;;;;;;;;31.70;70.80;;;;;;5110548;28;20374;-73
2023/06/29 11:17:44;;;;;;;;;;;32.30;70.40;;;;;;5110134;28;19957;-73
2023/06/29 11:20:10;;;;;;;;;;;32.70;70.10;;;;;;5110457;28;19911;-73
2023/06/29 11:22:39;;;;;;;;;;;32.90;70.10;;;;;;5110564;28;19919;-72
2023/06/29 11:25:05;;;;;;;;;;;32.90;70.30;;;;;;5110600;28;19911;-74
2023/06/29 11:27:31;;;;;;;;;;;33.10;70.30;;;;;;5110203;28;19920;-74
2023/06/29 11:29:57;;;;;;;;;;;32.50;69.20;;;;;;5108751;28;19939;-73
2023/06/29 11:32:24;;;;;;;;;;;31.60;69.10;;;;;;5108573;28;19937;-73
2023/06/29 11:34:57;;;;;;;;;;;30.90;69.30;;;;;;5108785;28;19916;-73
2023/06/29 11:37:23;;;;;;;;;;;30.80;70.70;;;;;;5110306;27;19913;-74
2023/06/29 11:39:49;;;;;;;;;;;31.40;71.40;;;;;;5109989;28;20376;-73
2023/06/29 11:42:17;;;;;;;;;;;31.90;71.20;;;;;;5110256;28;19916;-73
2023/06/29 11:44:42;;;;;;;;;;;32.60;71.40;;;;;;5110006;28;20261;-74
2023/06/29 11:47:08;;;;;;;;;;;33.00;70.80;;;;;;5110434;28;19923;-74
2023/06/29 11:49:34;;;;;;;;;;;33.10;70.50;;;;;;5110484;28;19916;-73
2023/06/29 11:52:02;;;;;;;;;;;32.70;69.80;;;;;;5108710;28;19912;-75
2023/06/29 11:54:29;;;;;;;;;;;32.00;69.50;;;;;;5109956;28;20030;-74
2023/06/29 11:56:55;;;;;;;;;;;31.10;69.30;;;;;;5109473;28;20006;-74
2023/06/29 11:59:20;;;;;;;;;;;30.10;69.00;;;;;;5109217;28;20010;-73
2023/06/29 12:01:47;;;;;;;;;;;29.10;69.10;;;;;;5109628;28;19916;-73
2023/06/29 12:04:15;;;;;;;;;;;28.20;69.60;;;;;;5109055;28;19920;-72
2023/06/29 12:06:50;;;;;;;;;;;27.50;69.70;;;;;;5109450;28;20002;-73
2023/06/29 12:09:16;;;;;;;;;;;27.00;69.80;;;;;;5109134;28;20007;-72
2023/06/29 12:11:42;;;;;;;;;;;26.60;70.20;;;;;;5108807;28;19998;-73
2023/06/29 12:14:09;;;;;;;;;;;26.60;70.70;;;;;;5108856;28;22292;-73
2023/06/29 12:16:41;;;;;;;;;;;27.00;71.40;;;;;;5109155;28;20343;-74
2023/06/29 12:19:10;;;;;;;;;;;27.90;71.80;;;;;;5109769;28;20549;-74
2023/06/29 12:21:36;;;;;;;;;;;28.80;71.70;;;;;;5109150;27;20338;-73
2023/06/29 12:24:03;;;;;;;;;;;29.50;71.40;;;;;;5109303;28;19908;-73
2023/06/29 12:26:28;;;;;;;;;;;30.00;71.10;;;;;;5108750;28;19915;-73
2023/06/29 12:28:54;;;;;;;;;;;30.40;70.80;;;;;;5107153;28;19923;-73
2023/06/29 12:31:27;;;;;;;;;;;30.70;70.60;;;;;;5108505;27;19942;-73
2023/06/29 12:33:56;;;;;;;;;;;30.80;70.40;;;;;;5108617;28;19961;-74
2023/06/29 12:36:21;;;;;;;;;;;30.80;70.50;;;;;;5108895;28;19961;-72
2023/06/29 12:38:47;;;;;;;;;;;31.20;70.80;;;;;;5108998;28;20326;-73
2023/06/29 12:41:13;;;;;;;;;;;31.20;70.10;;;;;;5108625;28;20334;-74
2023/06/29 12:43:39;;;;;;;;;;;30.90;69.70;;;;;;5108412;28;19908;-74
2023/06/29 12:46:04;;;;;;;;;;;30.40;69.30;;;;;;5108016;28;20264;-74
2023/06/29 12:48:30;;;;;;;;;;;30.00;69.40;;;;;;5106865;28;20003;-73
2023/06/29 12:50:59;;;;;;;;;;;29.50;69.20;;;;;;5107032;28;19938;-75
2023/06/29 12:53:25;;;;;;;;;;;28.90;68.90;;;;;;5108902;28;19915;-74
2023/06/29 12:55:51;;;;;;;;;;;28.30;68.90;;;;;;5108516;28;20498;-74
2023/06/29 12:58:16;;;;;;;;;;;27.70;68.60;;;;;;5107361;28;19964;-74
2023/06/29 13:00:42;;;;;;;;;;;26.90;68.60;;;;;;5108749;28;19916;-73
2023/06/29 13:03:11;;;;;;;;;;;26.30;68.90;;;;;;5108329;28;19916;-73
2023/06/29 13:05:49;;;;;;;;;;;25.70;69.00;;;;;;5108488;28;20438;-73
2023/06/29 13:08:15;;;;;;;;;;;25.20;69.10;;;;;;5107335;28;20284;-73
2023/06/29 13:10:41;;;;;;;;;;;24.80;69.30;;;;;;5108992;28;19912;-73
2023/06/29 13:13:06;;;;;;;;;;;24.60;69.60;;;;;;5108809;28;19935;-74
2023/06/29 13:15:32;;;;;;;;;;;24.50;69.70;;;;;;5108575;28;19908;-74
2023/06/29 13:17:57;;;;;;;;;;;24.60;69.60;;;;;;5108136;28;19919;-72
2023/06/29 13:20:23;;;;;;;;;;;24.70;69.50;;;;;;5107047;28;19984;-72
2023/06/29 13:22:49;;;;;;;;;;;24.80;69.30;;;;;;5109664;28;19935;-72
2023/06/29 13:25:14;;;;;;;;;;;25.00;69.20;;;;;;5093750;28;19916;-72
2023/06/29 13:27:41;;;;;;;;;;;25.10;69.00;;;;;;5112494;28;19919;-72
2023/06/29 13:30:10;;;;;;;;;;;25.30;69.20;;;;;;5112346;28;19978;-72
2023/06/29 13:32:35;;;;;;;;;;;25.40;69.30;;;;;;5112427;28;19912;-72
2023/06/29 13:35:01;;;;;;;;;;;25.40;68.90;;;;;;5109365;28;19931;-71
2023/06/29 13:37:28;;;;;;;;;;;25.30;68.60;;;;;;5101642;28;19920;-71
2023/06/29 13:39:54;;;;;;;;;;;25.10;68.40;;;;;;5102626;28;19915;-72
2023/06/29 13:42:20;;;;;;;;;;;24.90;68.50;;;;;;5102925;28;19916;-72
2023/06/29 13:44:45;;;;;;;;;;;24.70;68.40;;;;;;5100926;28;19911;-72
2023/06/29 13:47:18;;;;;;;;;;;24.50;68.50;;;;;;5099691;28;19920;-72
2023/06/29 13:49:44;;;;;;;;;;;24.40;68.70;;;;;;5104013;28;19913;-72
2023/06/29 13:52:09;;;;;;;;;;;24.30;68.80;;;;;;5102574;28;19915;-72
2023/06/29 13:54:35;;;;;;;;;;;24.20;68.60;;;;;;5102527;28;19919;-72
2023/06/29 13:57:01;;;;;;;;;;;24.10;68.50;;;;;;5091416;28;20313;-72
2023/06/29 13:59:26;;;;;;;;;;;23.90;68.40;;;;;;5092491;28;20681;-72
2023/06/29 14:01:52;;;;;;;;;;;23.60;68.30;;;;;;5099823;28;19920;-72
2023/06/29 14:04:18;;;;;;;;;;;23.30;68.40;;;;;;5111209;28;19965;-73
2023/06/29 14:06:45;;;;;;;;;;;23.20;68.60;;;;;;5110253;28;19932;-73
2023/06/29 14:09:11;;;;;;;;;;;23.10;69.30;;;;;;5111938;28;20257;-73
2023/06/29 14:11:36;;;;;;;;;;;23.00;68.90;;;;;;5112066;28;19914;-75